Time;durP1;ratioP1;P1;durP2;ratioP2;P2;SDS_P1;SDS_P2;PMS_P1;PMS_P2;Temp;Humidity;BMP_temperature;BMP_pressure;BME280_temperature;BME280_humidity;BME280_pressure;Samples;Min_cycle;Max_cycle;Signal;HPM_P1;HPM_P2
2023/05/07 00:02:07;;;;;;;51.67;47.13;;;13.70;99.90;;;;;;4994260;28;20030;-76
2023/05/07 00:04:36;;;;;;;51.42;46.55;;;13.80;99.90;;;;;;5014427;28;20458;-75
2023/05/07 00:07:02;;;;;;;53.22;48.30;;;13.80;99.90;;;;;;4996181;28;20038;-75
2023/05/07 00:09:28;;;;;;;51.60;46.88;;;13.80;99.90;;;;;;4992453;28;20037;-75
2023/05/07 00:11:54;;;;;;;51.97;47.25;;;13.80;99.90;;;;;;4992793;28;20075;-75
2023/05/07 00:14:20;;;;;;;57.15;51.85;;;13.70;99.90;;;;;;4976729;28;20156;-76
2023/05/07 00:16:46;;;;;;;55.63;50.67;;;13.70;99.90;;;;;;4996305;28;20134;-76
2023/05/07 00:19:12;;;;;;;55.22;50.13;;;13.70;99.90;;;;;;5004191;28;20128;-76
2023/05/07 00:21:40;;;;;;;56.10;51.00;;;13.70;99.90;;;;;;4998554;28;20038;-76
2023/05/07 00:24:06;;;;;;;55.65;50.58;;;13.70;99.90;;;;;;5007598;28;20565;-76
2023/05/07 00:26:32;;;;;;;58.63;52.90;;;13.70;99.90;;;;;;4991372;28;20042;-76
2023/05/07 00:28:58;;;;;;;59.17;53.42;;;13.60;99.90;;;;;;4999695;28;20477;-76
2023/05/07 00:31:23;;;;;;;69.55;62.00;;;13.60;99.90;;;;;;4998444;28;20042;-76
2023/05/07 00:33:49;;;;;;;64.78;57.95;;;13.60;99.90;;;;;;5011418;28;20048;-76
2023/05/07 00:36:14;;;;;;;59.72;53.90;;;13.60;99.90;;;;;;4994311;28;20077;-76
2023/05/07 00:38:40;;;;;;;58.58;52.95;;;13.60;99.90;;;;;;4993815;28;20506;-76
2023/05/07 00:41:06;;;;;;;58.58;53.05;;;13.60;99.90;;;;;;4992001;28;20398;-76
2023/05/07 00:43:32;;;;;;;58.65;53.17;;;13.60;99.90;;;;;;4984621;28;20038;-76
2023/05/07 00:45:58;;;;;;;57.95;52.75;;;13.60;99.90;;;;;;4995695;28;20618;-76
2023/05/07 00:48:24;;;;;;;57.03;51.63;;;13.50;99.90;;;;;;5001607;28;20038;-76
2023/05/07 00:50:50;;;;;;;58.00;52.60;;;13.60;99.90;;;;;;5008865;28;20042;-76
2023/05/07 00:53:16;;;;;;;59.83;54.20;;;13.60;99.90;;;;;;4991253;28;20422;-76
2023/05/07 00:55:42;;;;;;;60.15;54.30;;;13.50;99.90;;;;;;5011876;28;20069;-76
2023/05/07 00:58:08;;;;;;;58.67;53.05;;;13.50;99.90;;;;;;5002086;28;20034;-76
2023/05/07 01:00:34;;;;;;;59.47;53.65;;;13.60;99.90;;;;;;4994066;28;20046;-76
2023/05/07 01:03:00;;;;;;;59.47;54.03;;;13.50;99.90;;;;;;5012975;28;20498;-76
2023/05/07 01:05:30;;;;;;;57.85;52.50;;;13.50;99.90;;;;;;4996579;28;20034;-77
2023/05/07 01:07:57;;;;;;;58.25;52.95;;;13.50;99.90;;;;;;5002011;28;20038;-77
2023/05/07 01:10:23;;;;;;;59.47;53.78;;;13.50;99.90;;;;;;4993763;28;20120;-77
2023/05/07 01:12:50;;;;;;;60.42;54.70;;;13.50;99.90;;;;;;4992258;28;20038;-77
2023/05/07 01:15:16;;;;;;;56.53;51.33;;;13.50;99.90;;;;;;5008823;28;20042;-77
2023/05/07 01:17:42;;;;;;;56.63;51.28;;;13.40;99.90;;;;;;5001293;28;20042;-77
2023/05/07 01:20:13;;;;;;;54.90;49.90;;;13.40;99.90;;;;;;4987248;28;20042;-76
2023/05/07 01:22:40;;;;;;;51.42;46.85;;;13.40;99.90;;;;;;4995170;28;20042;-76
2023/05/07 01:25:07;;;;;;;49.45;44.95;;;13.30;99.90;;;;;;4987442;28;20497;-76
2023/05/07 01:27:35;;;;;;;49.50;44.90;;;13.40;99.90;;;;;;4995067;28;20130;-76
2023/05/07 01:30:01;;;;;;;48.53;43.92;;;13.40;99.90;;;;;;5025969;28;20469;-76
2023/05/07 01:33:02;;;;;;;45.60;41.40;;;13.30;99.90;;;;;;4985096;28;20502;-76
2023/05/07 01:35:35;;;;;;;45.97;41.78;;;13.40;99.90;;;;;;5015326;28;20067;-76
2023/05/07 01:38:04;;;;;;;47.40;42.90;;;13.40;99.90;;;;;;4998161;28;20112;-76
2023/05/07 01:40:30;;;;;;;42.60;38.63;;;13.30;99.90;;;;;;4992931;28;20057;-76
2023/05/07 01:42:56;;;;;;;39.83;36.05;;;13.40;99.90;;;;;;5011844;28;20495;-76
2023/05/07 01:45:22;;;;;;;39.97;36.35;;;13.40;99.90;;;;;;5012023;28;20038;-76
2023/05/07 01:47:49;;;;;;;39.33;35.92;;;13.30;99.90;;;;;;4998044;28;20141;-76
2023/05/07 01:50:16;;;;;;;39.08;35.75;;;13.20;99.90;;;;;;4998409;28;20050;-76
2023/05/07 01:52:43;;;;;;;38.33;34.50;;;13.20;99.90;;;;;;4997373;28;20037;-76
2023/05/07 01:55:09;;;;;;;35.45;32.35;;;13.20;99.90;;;;;;4993141;28;20042;-76
2023/05/07 01:57:35;;;;;;;33.78;30.90;;;13.20;99.90;;;;;;5031207;28;20128;-76
2023/05/07 02:00:06;;;;;;;36.10;32.88;;;13.20;99.90;;;;;;4999807;28;20054;-76
2023/05/07 02:02:31;;;;;;;34.53;31.38;;;13.20;99.90;;;;;;4998199;28;20038;-76
2023/05/07 02:04:57;;;;;;;33.33;30.58;;;13.20;99.90;;;;;;5031151;28;20042;-76
2023/05/07 02:07:23;;;;;;;34.40;31.35;;;13.20;99.90;;;;;;5013381;28;20212;-76
2023/05/07 02:09:48;;;;;;;32.47;29.48;;;13.10;99.90;;;;;;5011121;28;20406;-76
2023/05/07 02:12:14;;;;;;;35.10;31.80;;;13.20;99.90;;;;;;4996629;28;20527;-76
2023/05/07 02:14:40;;;;;;;33.45;30.45;;;13.10;99.90;;;;;;5014495;28;20073;-76
2023/05/07 02:17:05;;;;;;;35.55;32.55;;;13.10;99.90;;;;;;5014143;28;20449;-77
2023/05/07 02:19:31;;;;;;;34.90;31.80;;;13.00;99.90;;;;;;5016903;28;20053;-77
2023/05/07 02:21:57;;;;;;;34.55;31.50;;;13.00;99.90;;;;;;5014324;28;20034;-77
2023/05/07 02:24:22;;;;;;;36.67;33.47;;;12.90;99.90;;;;;;5006482;28;20038;-76
2023/05/07 02:26:48;;;;;;;37.58;34.33;;;12.90;99.90;;;;;;4978151;28;20097;-76
2023/05/07 02:29:14;;;;;;;37.83;34.40;;;12.90;99.90;;;;;;4978326;28;20137;-76
2023/05/07 02:31:39;;;;;;;39.50;36.00;;;12.80;99.90;;;;;;4983247;28;20061;-77
2023/05/07 02:34:05;;;;;;;38.30;34.90;;;12.80;99.90;;;;;;4997178;28;20079;-76
2023/05/07 02:36:31;;;;;;;40.80;37.30;;;12.80;99.90;;;;;;4996662;28;20065;-76
2023/05/07 02:38:56;;;;;;;39.42;35.90;;;12.80;99.90;;;;;;5030304;28;20346;-76
2023/05/07 02:41:22;;;;;;;39.67;36.17;;;12.80;99.90;;;;;;5007161;28;20045;-76
2023/05/07 02:43:48;;;;;;;39.00;35.47;;;12.80;99.90;;;;;;4996402;28;20034;-76
2023/05/07 02:46:16;;;;;;;40.80;37.08;;;12.70;99.90;;;;;;5016261;28;20049;-76
2023/05/07 02:48:42;;;;;;;41.15;37.45;;;12.60;99.90;;;;;;4995886;28;20046;-76
2023/05/07 02:51:07;;;;;;;40.85;37.25;;;12.60;99.90;;;;;;4994064;28;20042;-76
2023/05/07 02:53:33;;;;;;;41.65;37.95;;;12.50;99.90;;;;;;4987601;28;20041;-76
2023/05/07 02:56:00;;;;;;;39.65;36.25;;;12.50;99.90;;;;;;5009346;28;20069;-76
2023/05/07 02:58:26;;;;;;;43.53;39.78;;;12.40;99.90;;;;;;4993047;28;20049;-76
2023/05/07 03:00:54;;;;;;;43.38;39.55;;;12.40;99.90;;;;;;4984108;28;20126;-76
2023/05/07 03:03:20;;;;;;;42.75;39.10;;;12.30;99.90;;;;;;5011739;28;20042;-76
2023/05/07 03:05:46;;;;;;;43.25;39.42;;;12.30;99.90;;;;;;4988132;28;20129;-76
2023/05/07 03:08:12;;;;;;;44.70;40.60;;;12.20;99.90;;;;;;4996518;28;20101;-76
2023/05/07 03:10:37;;;;;;;44.33;40.42;;;12.00;99.90;;;;;;4997261;28;20043;-76
2023/05/07 03:13:04;;;;;;;48.78;44.30;;;12.10;99.90;;;;;;5008686;28;20038;-76
2023/05/07 03:15:30;;;;;;;44.88;40.78;;;12.10;99.90;;;;;;5030151;28;20038;-76
2023/05/07 03:17:56;;;;;;;44.20;40.35;;;12.10;99.90;;;;;;5027217;28;20042;-76
2023/05/07 03:20:22;;;;;;;43.88;39.95;;;12.00;99.90;;;;;;4995219;28;20042;-76
2023/05/07 03:22:47;;;;;;;43.80;39.60;;;12.00;99.90;;;;;;4993148;28;20113;-76
2023/05/07 03:25:15;;;;;;;42.15;38.35;;;11.90;99.90;;;;;;4976822;28;20129;-76
2023/05/07 03:27:43;;;;;;;49.53;44.95;;;12.00;99.90;;;;;;4976312;28;20125;-76
2023/05/07 03:30:10;;;;;;;43.67;39.83;;;11.90;99.90;;;;;;4976664;28;20043;-76
2023/05/07 03:32:36;;;;;;;45.70;41.67;;;11.90;99.90;;;;;;5009531;28;20441;-76
2023/05/07 03:35:02;;;;;;;45.45;41.45;;;11.80;99.90;;;;;;5008398;28;20034;-76
2023/05/07 03:37:28;;;;;;;48.08;43.75;;;11.80;99.90;;;;;;5008524;28;20046;-76
2023/05/07 03:39:53;;;;;;;46.88;42.65;;;11.80;99.90;;;;;;4976543;28;20054;-76
2023/05/07 03:42:19;;;;;;;45.92;41.72;;;11.70;99.90;;;;;;4982804;28;20490;-76
2023/05/07 03:44:45;;;;;;;46.72;42.38;;;11.80;99.90;;;;;;5003751;28;20486;-76
2023/05/07 03:47:13;;;;;;;46.95;42.55;;;11.70;99.90;;;;;;5011601;28;20042;-76
2023/05/07 03:49:39;;;;;;;47.33;43.20;;;11.70;99.90;;;;;;5010628;28;20053;-76
2023/05/07 03:52:05;;;;;;;47.47;43.28;;;11.80;99.90;;;;;;4985972;28;20096;-76
2023/05/07 03:54:31;;;;;;;47.33;43.03;;;11.80;99.90;;;;;;5013587;28;20477;-76
2023/05/07 03:57:02;;;;;;;46.95;42.72;;;11.70;99.90;;;;;;4975479;28;20046;-76
2023/05/07 03:59:31;;;;;;;47.35;42.95;;;11.70;99.90;;;;;;5008217;28;20046;-76
2023/05/07 04:01:56;;;;;;;48.40;43.88;;;11.70;99.90;;;;;;4979099;28;20100;-76
2023/05/07 04:04:22;;;;;;;47.78;43.10;;;11.70;99.90;;;;;;5004118;28;20038;-76
2023/05/07 04:06:48;;;;;;;50.38;45.80;;;11.60;99.90;;;;;;5011022;28;20509;-76
2023/05/07 04:09:13;;;;;;;50.25;45.65;;;11.60;99.90;;;;;;5012769;28;20041;-76
2023/05/07 04:11:42;;;;;;;49.88;44.97;;;11.50;99.90;;;;;;4992965;28;20128;-76
2023/05/07 04:14:08;;;;;;;56.00;50.63;;;11.50;99.90;;;;;;5031487;28;20506;-76
2023/05/07 04:16:35;;;;;;;52.75;47.45;;;11.50;99.90;;;;;;5010071;28;20092;-76
2023/05/07 04:19:00;;;;;;;51.47;46.60;;;11.50;99.90;;;;;;5027810;28;20421;-76
2023/05/07 04:21:26;;;;;;;53.42;48.42;;;11.40;99.90;;;;;;5035080;28;20048;-76
2023/05/07 04:23:52;;;;;;;54.20;49.00;;;11.50;99.90;;;;;;5009098;28;20042;-76
2023/05/07 04:26:18;;;;;;;53.22;48.03;;;11.40;99.90;;;;;;4990148;28;20049;-77
2023/05/07 04:28:43;;;;;;;55.08;49.83;;;11.50;99.90;;;;;;5011128;28;20132;-77
2023/05/07 04:31:10;;;;;;;54.30;49.08;;;11.50;99.90;;;;;;4979802;28;20046;-77
2023/05/07 04:33:38;;;;;;;55.53;50.25;;;11.50;99.90;;;;;;4994823;28;20057;-77
2023/05/07 04:36:04;;;;;;;55.00;49.80;;;11.50;99.90;;;;;;5008121;28;20449;-77
2023/05/07 04:38:32;;;;;;;54.92;49.55;;;11.50;99.90;;;;;;4996861;28;20038;-77
2023/05/07 04:41:03;;;;;;;55.08;49.78;;;11.50;99.90;;;;;;5017370;28;20034;-76
2023/05/07 04:43:29;;;;;;;57.20;51.90;;;11.50;99.90;;;;;;4998407;28;20048;-76
2023/05/07 04:45:55;;;;;;;55.80;50.55;;;11.60;99.90;;;;;;4986266;28;20355;-76
2023/05/07 04:48:21;;;;;;;56.63;51.40;;;11.50;99.90;;;;;;4987084;28;20046;-76
2023/05/07 04:50:50;;;;;;;56.25;50.88;;;11.40;99.90;;;;;;4999702;28;20494;-76
2023/05/07 04:53:16;;;;;;;58.83;53.22;;;11.50;99.90;;;;;;4997592;28;20426;-76
2023/05/07 04:55:45;;;;;;;57.80;52.53;;;11.50;99.90;;;;;;4984829;28;20046;-76
2023/05/07 04:58:14;;;;;;;56.53;51.17;;;11.50;99.90;;;;;;4974462;28;20061;-76
2023/05/07 05:00:44;;;;;;;58.05;52.60;;;11.60;99.90;;;;;;4989975;28;20045;-76
2023/05/07 05:03:10;;;;;;;58.00;52.50;;;11.50;99.90;;;;;;4997197;28;20126;-76
2023/05/07 05:05:36;;;;;;;57.63;52.17;;;11.60;99.90;;;;;;4989114;28;20073;-76
2023/05/07 05:08:02;;;;;;;59.78;53.97;;;11.60;99.90;;;;;;5000319;28;20482;-76
2023/05/07 05:10:28;;;;;;;61.90;55.92;;;11.60;99.90;;;;;;5004038;28;20090;-76
2023/05/07 05:12:53;;;;;;;58.00;52.60;;;11.50;99.90;;;;;;4997219;28;20046;-76
2023/05/07 05:15:19;;;;;;;57.42;52.00;;;11.60;99.90;;;;;;4997712;28;20049;-76
2023/05/07 05:17:45;;;;;;;58.78;53.05;;;11.60;99.90;;;;;;5000017;28;20073;-77
2023/05/07 05:20:11;;;;;;;56.15;50.83;;;11.60;99.90;;;;;;5001441;28;20076;-77
2023/05/07 05:22:41;;;;;;;58.00;52.47;;;11.70;99.90;;;;;;5017741;28;20485;-77
2023/05/07 05:25:07;;;;;;;56.75;51.25;;;11.70;99.90;;;;;;4994270;28;20506;-76
2023/05/07 05:27:33;;;;;;;57.67;52.17;;;11.70;99.90;;;;;;5000118;28;20478;-76
2023/05/07 05:30:00;;;;;;;60.95;54.90;;;11.70;99.90;;;;;;4992611;28;20069;-76
2023/05/07 05:32:32;;;;;;;55.13;49.83;;;11.70;99.90;;;;;;5019044;28;20049;-76
2023/05/07 05:35:00;;;;;;;56.95;51.60;;;11.70;99.90;;;;;;5009051;28;20073;-76
2023/05/07 05:37:26;;;;;;;56.15;50.83;;;11.80;99.90;;;;;;4999925;28;20418;-76
2023/05/07 05:39:54;;;;;;;55.65;50.45;;;11.80;99.90;;;;;;5016978;28;20069;-77
2023/05/07 05:42:20;;;;;;;56.08;50.92;;;11.80;99.90;;;;;;5016746;28;20057;-77
2023/05/07 05:44:46;;;;;;;55.55;50.45;;;11.80;99.90;;;;;;5008216;28;20038;-77
2023/05/07 05:47:14;;;;;;;54.03;49.20;;;11.90;99.90;;;;;;4992301;28;20098;-77
2023/05/07 05:49:40;;;;;;;53.60;48.65;;;11.90;99.90;;;;;;5016747;28;20042;-77
2023/05/07 05:52:05;;;;;;;55.92;50.75;;;11.90;99.90;;;;;;5016426;28;20033;-76
2023/05/07 05:54:31;;;;;;;54.67;49.58;;;11.90;99.90;;;;;;5031259;28;20049;-76
2023/05/07 05:57:03;;;;;;;54.03;49.20;;;11.90;99.90;;;;;;4994908;28;20053;-76
2023/05/07 05:59:32;;;;;;;54.05;49.05;;;11.90;99.90;;;;;;4999274;28;20494;-76
2023/05/07 06:01:57;;;;;;;53.72;48.92;;;12.10;99.90;;;;;;4999206;28;20116;-76
2023/05/07 06:04:23;;;;;;;54.22;49.38;;;12.00;99.90;;;;;;5021842;28;20046;-76
2023/05/07 06:06:51;;;;;;;49.38;44.88;;;12.10;99.90;;;;;;5015394;28;20040;-76
2023/05/07 06:09:16;;;;;;;51.28;46.63;;;12.10;99.90;;;;;;5001419;28;20042;-76
2023/05/07 06:11:47;;;;;;;50.88;46.30;;;12.10;99.90;;;;;;4997781;28;20057;-76
2023/05/07 06:14:12;;;;;;;51.85;47.05;;;12.10;99.90;;;;;;5016018;28;20049;-75
2023/05/07 06:16:47;;;;;;;49.30;44.90;;;12.10;99.90;;;;;;5014204;28;20042;-76
2023/05/07 06:19:17;;;;;;;49.38;44.65;;;12.10;99.90;;;;;;5011571;28;20498;-76
2023/05/07 06:21:48;;;;;;;52.35;47.65;;;12.10;99.90;;;;;;4984690;28;20034;-76
2023/05/07 06:24:32;;;;;;;52.83;48.13;;;12.20;99.90;;;;;;4993727;28;20037;-75
2023/05/07 06:27:04;;;;;;;51.53;46.92;;;12.00;99.90;;;;;;5000962;28;20385;-76
2023/05/07 06:29:34;;;;;;;48.45;44.10;;;12.10;99.90;;;;;;4999585;28;20061;-76
2023/05/07 06:32:13;;;;;;;48.15;43.75;;;12.10;99.90;;;;;;4984497;28;20038;-75
2023/05/07 06:34:42;;;;;;;49.55;45.05;;;12.20;99.90;;;;;;5013027;28;20042;-76
2023/05/07 06:37:10;;;;;;;48.78;44.40;;;12.20;99.90;;;;;;5017892;28;20575;-75
2023/05/07 06:39:35;;;;;;;48.17;43.95;;;12.30;99.90;;;;;;5002018;28;20134;-76
2023/05/07 06:42:02;;;;;;;46.08;42.10;;;12.30;99.90;;;;;;5009381;28;20030;-75
2023/05/07 06:44:27;;;;;;;49.67;45.25;;;12.40;99.90;;;;;;5015710;28;20041;-73
2023/05/07 06:46:53;;;;;;;47.65;43.63;;;12.40;99.90;;;;;;5008861;28;20338;-74
2023/05/07 06:49:19;;;;;;;45.92;41.78;;;12.50;99.90;;;;;;5009859;28;20042;-74
2023/05/07 06:51:44;;;;;;;44.90;41.00;;;12.60;99.90;;;;;;4993317;28;20121;-74
2023/05/07 06:54:10;;;;;;;45.20;41.17;;;12.70;99.90;;;;;;5027582;28;20104;-73
2023/05/07 06:56:35;;;;;;;45.60;41.53;;;12.70;99.90;;;;;;5027363;28;20081;-74
2023/05/07 06:59:02;;;;;;;45.85;41.85;;;12.70;99.90;;;;;;5007562;28;20054;-74
2023/05/07 07:01:28;;;;;;;45.35;41.47;;;12.80;99.90;;;;;;5009152;28;20041;-73
2023/05/07 07:03:53;;;;;;;44.63;40.72;;;12.80;99.90;;;;;;5012918;28;20125;-73
2023/05/07 07:06:19;;;;;;;43.28;39.28;;;12.80;99.90;;;;;;5012300;28;20046;-73
2023/05/07 07:08:45;;;;;;;44.38;40.38;;;12.90;99.90;;;;;;5012567;28;20398;-74
2023/05/07 07:11:10;;;;;;;45.22;41.13;;;13.10;99.90;;;;;;5011746;28;20049;-74
2023/05/07 07:13:36;;;;;;;42.55;38.95;;;13.20;99.90;;;;;;4995139;28;20074;-75
2023/05/07 07:16:02;;;;;;;42.58;39.00;;;13.40;99.90;;;;;;4993797;28;20037;-74
2023/05/07 07:18:28;;;;;;;43.83;39.78;;;13.40;99.90;;;;;;4987064;28;20046;-74
2023/05/07 07:20:54;;;;;;;43.58;39.63;;;13.60;99.90;;;;;;5027464;28;20513;-73
2023/05/07 07:23:19;;;;;;;42.67;38.83;;;13.70;99.90;;;;;;4994315;28;20052;-74
2023/05/07 07:25:45;;;;;;;43.30;39.53;;;14.00;99.90;;;;;;5010030;28;20516;-73
2023/05/07 07:28:11;;;;;;;41.72;38.13;;;13.90;99.90;;;;;;5011294;28;20052;-73
2023/05/07 07:30:37;;;;;;;43.40;39.60;;;14.00;99.90;;;;;;4994614;28;20038;-76
2023/05/07 07:33:03;;;;;;;41.55;37.85;;;14.10;99.90;;;;;;5010899;28;20042;-74
2023/05/07 07:35:37;;;;;;;41.67;38.08;;;14.10;99.90;;;;;;5011850;28;20088;-74
2023/05/07 07:38:03;;;;;;;43.95;40.15;;;14.10;99.90;;;;;;5010830;28;20494;-75
2023/05/07 07:40:31;;;;;;;42.42;38.63;;;14.20;99.90;;;;;;5027089;28;20141;-75
2023/05/07 07:43:09;;;;;;;42.63;38.65;;;14.30;99.90;;;;;;5006356;28;20092;-74
2023/05/07 07:45:38;;;;;;;42.10;38.50;;;14.40;99.90;;;;;;5025491;28;20037;-75
2023/05/07 07:48:04;;;;;;;42.78;39.00;;;14.50;99.90;;;;;;5027062;28;20264;-74
2023/05/07 07:50:30;;;;;;;42.92;39.13;;;14.50;99.90;;;;;;5011189;28;20562;-74
2023/05/07 07:52:55;;;;;;;43.13;39.30;;;14.60;99.90;;;;;;4975765;28;20148;-74
2023/05/07 07:55:22;;;;;;;41.97;38.28;;;14.60;99.90;;;;;;5000720;28;20038;-74
2023/05/07 07:57:53;;;;;;;41.40;37.70;;;14.70;99.90;;;;;;5003317;28;20041;-74
2023/05/07 08:00:19;;;;;;;42.60;38.95;;;14.80;99.90;;;;;;5011419;28;20049;-74
2023/05/07 08:02:45;;;;;;;41.22;37.63;;;14.70;99.90;;;;;;5010039;28;20405;-74
2023/05/07 08:05:10;;;;;;;41.92;38.08;;;14.90;99.90;;;;;;5010620;28;20037;-74
2023/05/07 08:07:36;;;;;;;41.55;37.85;;;15.00;99.90;;;;;;5002622;28;20104;-74
2023/05/07 08:10:02;;;;;;;41.30;37.60;;;14.90;99.90;;;;;;5027754;28;20046;-74
2023/05/07 08:12:27;;;;;;;42.30;38.58;;;15.00;99.90;;;;;;5027707;28;20129;-74
2023/05/07 08:14:53;;;;;;;43.53;39.55;;;15.10;99.90;;;;;;5011254;28;20148;-74
2023/05/07 08:17:21;;;;;;;42.85;39.15;;;15.10;99.90;;;;;;4994503;28;20550;-74
2023/05/07 08:19:47;;;;;;;43.47;39.70;;;15.40;99.90;;;;;;5026739;28;20059;-74
2023/05/07 08:22:13;;;;;;;41.25;37.65;;;15.60;99.90;;;;;;4996990;28;20491;-74
2023/05/07 08:24:40;;;;;;;39.70;36.30;;;15.90;99.90;;;;;;4988706;28;20046;-75
2023/05/07 08:27:05;;;;;;;40.17;36.78;;;16.00;99.90;;;;;;5006602;28;20076;-74
2023/05/07 08:29:31;;;;;;;40.20;36.67;;;16.10;99.90;;;;;;4994664;28;20077;-75
2023/05/07 08:31:57;;;;;;;39.78;36.47;;;16.20;99.90;;;;;;5009498;28;21504;-73
2023/05/07 08:34:22;;;;;;;41.40;37.83;;;16.30;99.90;;;;;;4993390;28;20049;-74
2023/05/07 08:36:48;;;;;;;39.83;36.45;;;16.70;99.90;;;;;;5011903;28;20046;-75
2023/05/07 08:39:18;;;;;;;37.63;34.22;;;17.20;99.90;;;;;;5010647;28;20533;-74
2023/05/07 08:41:51;;;;;;;38.10;34.78;;;17.70;99.90;;;;;;4992775;28;20042;-75
2023/05/07 08:44:20;;;;;;;36.22;33.22;;;18.00;99.90;;;;;;4998994;28;20037;-75
2023/05/07 08:46:48;;;;;;;35.75;32.65;;;18.30;99.90;;;;;;4996259;28;20034;-74
2023/05/07 08:49:13;;;;;;;34.95;31.92;;;18.50;99.90;;;;;;5005606;28;20050;-74
2023/05/07 08:51:39;;;;;;;35.67;32.47;;;18.80;99.90;;;;;;4991027;28;20656;-73
2023/05/07 08:54:06;;;;;;;35.33;32.40;;;19.10;99.90;;;;;;4991361;28;20078;-74
2023/05/07 08:56:31;;;;;;;33.92;30.83;;;19.10;99.90;;;;;;4990770;28;20042;-73
2023/05/07 08:58:58;;;;;;;34.05;31.15;;;19.20;99.90;;;;;;5007355;28;20053;-74
2023/05/07 09:01:24;;;;;;;36.50;33.40;;;19.20;99.90;;;;;;5006043;28;20563;-74
2023/05/07 09:03:50;;;;;;;34.80;31.70;;;19.30;99.90;;;;;;5002408;28;20042;-74
2023/05/07 09:06:17;;;;;;;33.58;30.55;;;19.80;99.90;;;;;;5010257;28;20486;-74
2023/05/07 09:08:50;;;;;;;34.35;31.35;;;20.00;99.90;;;;;;5011817;28;20053;-74
2023/05/07 09:11:16;;;;;;;34.10;30.98;;;20.10;99.90;;;;;;5010648;28;20498;-74
2023/05/07 09:13:42;;;;;;;35.90;32.65;;;20.20;99.90;;;;;;5011237;28;20052;-74
2023/05/07 09:16:12;;;;;;;34.50;31.45;;;20.30;99.90;;;;;;5004808;28;20452;-74
2023/05/07 09:18:42;;;;;;;34.67;31.67;;;20.30;99.90;;;;;;5025244;28;20057;-74
2023/05/07 09:21:10;;;;;;;33.95;31.05;;;20.90;99.90;;;;;;5027005;28;20140;-74
2023/05/07 09:23:35;;;;;;;33.17;30.27;;;21.40;99.90;;;;;;5010803;28;20425;-73
2023/05/07 09:26:02;;;;;;;32.30;29.55;;;21.60;99.60;;;;;;5006200;28;20050;-74
2023/05/07 09:28:27;;;;;;;32.85;29.90;;;21.30;99.90;;;;;;5005591;28;20405;-74
2023/05/07 09:30:53;;;;;;;34.83;31.83;;;21.00;99.30;;;;;;5002196;28;20121;-74
2023/05/07 09:33:18;;;;;;;33.72;30.83;;;20.40;99.90;;;;;;5003345;28;20088;-74
2023/05/07 09:35:44;;;;;;;34.00;30.90;;;20.10;99.90;;;;;;4990554;28;20100;-74
2023/05/07 09:38:10;;;;;;;35.10;31.90;;;19.90;99.90;;;;;;4990639;28;20046;-74
2023/05/07 09:40:35;;;;;;;34.20;31.08;;;19.50;99.90;;;;;;4990614;28;20566;-74
2023/05/07 09:43:14;;;;;;;36.55;33.28;;;19.30;99.90;;;;;;5001225;28;20076;-73
2023/05/07 09:45:41;;;;;;;37.22;34.05;;;19.20;99.90;;;;;;5002500;28;20149;-74
2023/05/07 09:48:07;;;;;;;35.38;32.28;;;19.30;99.90;;;;;;5010064;28;20042;-74
2023/05/07 09:50:36;;;;;;;36.20;33.10;;;19.50;99.90;;;;;;4994096;28;20136;-74
2023/05/07 09:53:06;;;;;;;35.35;32.15;;;19.50;99.90;;;;;;5015222;28;20038;-74
2023/05/07 09:55:32;;;;;;;35.95;32.75;;;19.60;99.90;;;;;;5015103;28;20121;-73
2023/05/07 09:57:58;;;;;;;35.83;32.72;;;19.70;99.90;;;;;;4992188;28;20125;-74
2023/05/07 10:00:25;;;;;;;34.10;31.08;;;19.80;99.90;;;;;;5009867;28;20057;-74
2023/05/07 10:02:57;;;;;;;35.67;32.65;;;19.90;99.90;;;;;;5013846;28;20049;-74
2023/05/07 10:05:23;;;;;;;35.38;32.38;;;19.80;99.90;;;;;;5012638;28;20042;-74
2023/05/07 10:07:50;;;;;;;36.78;33.63;;;19.80;99.90;;;;;;5005062;28;20272;-74
2023/05/07 10:10:17;;;;;;;37.35;34.17;;;19.80;99.90;;;;;;5013184;28;20387;-73
2023/05/07 10:12:42;;;;;;;35.55;32.65;;;19.80;99.90;;;;;;5011381;28;20046;-74
2023/05/07 10:15:10;;;;;;;35.78;32.47;;;19.80;99.90;;;;;;4991162;28;20495;-73
2023/05/07 10:17:39;;;;;;;35.10;31.90;;;20.00;99.90;;;;;;5013568;28;20577;-74
2023/05/07 10:20:05;;;;;;;36.80;33.60;;;20.20;99.90;;;;;;5012652;28;20511;-74
2023/05/07 10:22:40;;;;;;;34.88;31.67;;;20.40;99.90;;;;;;4988880;28;20038;-74
2023/05/07 10:25:18;;;;;;;33.80;30.80;;;21.00;99.90;;;;;;5030069;28;20509;-74
2023/05/07 10:27:46;;;;;;;33.00;30.10;;;21.30;99.90;;;;;;5013592;28;20386;-74
2023/05/07 10:30:14;;;;;;;33.55;30.63;;;21.30;99.90;;;;;;5012607;28;20046;-74
2023/05/07 10:32:45;;;;;;;34.50;31.40;;;21.30;99.90;;;;;;5029433;28;20049;-75
2023/05/07 10:35:24;;;;;;;33.42;30.38;;;21.40;99.90;;;;;;5013122;28;20433;-74
2023/05/07 10:37:50;;;;;;;33.20;30.33;;;21.90;99.10;;;;;;5013046;28;20529;-74
2023/05/07 10:40:17;;;;;;;32.40;29.50;;;22.00;99.90;;;;;;4996917;28;20058;-74
2023/05/07 10:43:00;;;;;;;31.77;28.88;;;21.90;99.90;;;;;;5029788;28;20046;-74
2023/05/07 10:45:26;;;;;;;32.03;29.23;;;21.80;98.20;;;;;;5027454;28;20049;-74
2023/05/07 10:48:08;;;;;;;31.67;28.98;;;21.40;99.90;;;;;;5009500;28;20133;-74
2023/05/07 10:50:35;;;;;;;32.88;30.13;;;21.20;99.90;;;;;;4993370;28;20050;-74
2023/05/07 10:53:19;;;;;;;33.55;30.42;;;21.00;99.90;;;;;;5009945;28;20372;-74
2023/05/07 10:55:50;;;;;;;32.33;29.52;;;21.10;99.90;;;;;;4977128;28;20042;-74
2023/05/07 10:58:21;;;;;;;33.30;30.40;;;21.30;99.90;;;;;;4993510;28;20105;-74
2023/05/07 11:00:48;;;;;;;31.45;28.55;;;21.80;99.90;;;;;;5003715;28;20046;-74
2023/05/07 11:03:14;;;;;;;30.52;27.83;;;22.00;99.90;;;;;;5005110;28;20129;-74
2023/05/07 11:05:41;;;;;;;30.45;27.75;;;21.90;99.90;;;;;;5010876;28;20053;-74
2023/05/07 11:08:07;;;;;;;29.10;26.60;;;21.80;99.90;;;;;;5013476;28;20041;-74
2023/05/07 11:10:51;;;;;;;29.38;26.75;;;21.60;99.90;;;;;;5012423;28;20077;-74
2023/05/07 11:13:18;;;;;;;30.60;27.98;;;21.40;99.90;;;;;;5012424;28;20072;-74
2023/05/07 11:15:47;;;;;;;29.55;26.92;;;21.40;99.90;;;;;;5011505;28;20057;-74
2023/05/07 11:18:17;;;;;;;29.10;26.70;;;21.70;99.90;;;;;;5004134;28;20042;-74
2023/05/07 11:20:57;;;;;;;28.67;26.17;;;22.20;99.90;;;;;;5028823;28;20457;-74
2023/05/07 11:23:35;;;;;;;28.83;26.30;;;22.90;94.20;;;;;;4996205;28;20062;-74
2023/05/07 11:26:00;;;;;;;29.55;26.95;;;23.00;84.40;;;;;;5028776;28;20078;-74
2023/05/07 11:28:30;;;;;;;29.05;26.55;;;22.70;86.50;;;;;;5028582;28;20530;-74
2023/05/07 11:30:57;;;;;;;27.80;25.48;;;22.50;91.60;;;;;;5007486;28;20038;-74
2023/05/07 11:33:25;;;;;;;27.10;24.75;;;22.50;94.20;;;;;;5024663;28;20081;-74
2023/05/07 11:35:52;;;;;;;27.58;25.27;;;22.50;95.80;;;;;;5028305;28;20533;-74
2023/05/07 11:38:19;;;;;;;27.92;25.52;;;22.50;96.40;;;;;;5028493;28;20049;-74
2023/05/07 11:40:52;;;;;;;27.40;25.10;;;22.50;90.20;;;;;;5028506;28;20437;-74
2023/05/07 11:43:21;;;;;;;28.30;25.92;;;22.10;95.90;;;;;;5013318;28;20046;-74
2023/05/07 11:45:49;;;;;;;28.45;25.95;;;22.00;99.90;;;;;;5027344;28;20033;-74
2023/05/07 11:48:16;;;;;;;28.00;25.70;;;22.10;94.70;;;;;;5003566;28;20038;-74
2023/05/07 11:51:06;;;;;;;29.58;27.08;;;21.90;97.50;;;;;;5028163;28;20087;-74
2023/05/07 11:53:39;;;;;;;27.38;25.15;;;21.60;97.80;;;;;;5006060;28;20046;-74
2023/05/07 11:56:10;;;;;;;29.00;26.30;;;21.20;99.90;;;;;;5002247;28;20046;-75
2023/05/07 11:58:36;;;;;;;28.08;25.50;;;21.10;99.90;;;;;;5010387;28;20084;-74
2023/05/07 12:01:01;;;;;;;26.83;24.42;;;21.30;99.90;;;;;;4990978;28;20138;-75
2023/05/07 12:03:27;;;;;;;28.15;25.80;;;21.10;99.90;;;;;;5013893;28;20474;-74
2023/05/07 12:05:53;;;;;;;27.70;25.40;;;20.90;99.90;;;;;;5010671;28;20100;-74
2023/05/07 12:08:20;;;;;;;27.52;25.13;;;20.60;99.90;;;;;;5000546;28;20120;-74
2023/05/07 12:10:49;;;;;;;27.92;25.52;;;20.70;99.90;;;;;;5008045;28;20046;-74
2023/05/07 12:13:19;;;;;;;26.60;24.30;;;20.90;99.90;;;;;;5016662;28;20050;-74
2023/05/07 12:15:44;;;;;;;27.48;25.17;;;20.80;99.90;;;;;;5001909;28;20045;-74
2023/05/07 12:18:11;;;;;;;27.55;25.35;;;20.90;99.90;;;;;;5027122;28;20046;-74
2023/05/07 12:20:37;;;;;;;25.55;23.45;;;21.20;99.90;;;;;;5010529;28;20533;-74
2023/05/07 12:23:03;;;;;;;25.70;23.55;;;21.60;99.90;;;;;;5021441;28;20448;-73
2023/05/07 12:25:47;;;;;;;27.90;25.58;;;21.80;97.50;;;;;;5007168;28;20042;-74
2023/05/07 12:28:16;;;;;;;26.08;23.90;;;21.70;99.90;;;;;;5001539;28;20548;-76
2023/05/07 12:30:50;;;;;;;26.77;24.42;;;21.70;99.90;;;;;;5010694;28;20030;-76